ADDS METAR Data INFO
IDs: Format: Raw Decoded Include TAF

Data at: 0459 UTC 23 May 2017

KORG 230455Z AUTO 35004KT 10SM OVC007 21/20 A2987 RMK AO2 T02080204
KORG 230435Z AUTO 34003KT 10SM OVC007 21/21 A2987 RMK AO2 T02090206
KORG 230415Z AUTO 00000KT 10SM BKN007 21/21 A2988 RMK AO2 T02070205
KORG 230355Z AUTO 00000KT 10SM BKN005 BKN038 21/21 A2987 RMK AO2 LTG DSNT SE T02070205
KORG 230335Z AUTO 00000KT 10SM BKN005 OVC037 21/21 A2987 RMK AO2 LTG DSNT SE T02080205
KORG 230315Z AUTO 00000KT 10SM BKN005 21/21 A2987 RMK AO2 T02070205
KORG 230255Z AUTO 33003KT 10SM BKN007 21/20 A2987 RMK AO2 T02070203
KORG 230235Z AUTO 00000KT 10SM BKN009 21/21 A2986 RMK AO2 T02080205
KORG 230215Z AUTO 00000KT 10SM CLR 21/20 A2986 RMK AO2 T02090204
KORG 230155Z AUTO 00000KT 10SM CLR 21/21 A2986 RMK AO2 T02100205
KORG 230135Z AUTO 00000KT 10SM SCT013 SCT055 21/21 A2986 RMK AO2 T02130205
KORG 230115Z AUTO 00000KT 10SM SCT008 OVC013 22/21 A2987 RMK AO2 T02170208
KORG 230055Z AUTO 34004KT 10SM BKN009 OVC014 22/21 A2986 RMK AO2 T02210213
KORG 230035Z AUTO 33004KT 10SM BKN009 OVC014 22/21 A2985 RMK AO2 T02220213
KORG 230015Z AUTO 32004KT 10SM BKN007 23/22 A2985 RMK AO2 LTG DSNT NE AND SE T02250215
KORG 222355Z AUTO 32004KT 10SM SCT060 22/21 A2986 RMK AO2 6//// T02220213 10272 20219
KORG 222335Z AUTO 31003KT 10SM BKN100 22/21 A2986 RMK AO2 T02210212
KORG 222315Z AUTO 00000KT 10SM SCT060 OVC090 22/21 A2987 RMK AO2 LTG DSNT NE T02200211
KORG 222255Z AUTO 10SM SCT008 BKN047 OVC060 22/21 A2987 RMK AO2 T02200210 PNO
KORG 222235Z AUTO 2 1/2SM -RA BKN009 BKN034 OVC043 22/21 A2988 RMK AO2 VIS 1V5 P0032 T02200212 TSNO
KORG 222215Z AUTO 5SM -RA SCT009 BKN019 OVC039 24/22 A2989 RMK AO2 T02380224 PNO TSNO
KORG 222155Z AUTO 00000KT 10SM SCT018 BKN034 OVC042 26/23 A2986 RMK AO2 T02550232
KORG 222135Z AUTO 5SM RA SCT018 BKN025 OVC032 26/22 A2987 RMK AO2 T02550224 TSNO
KORG 222115Z AUTO 18006KT 10SM BKN021 BKN030 OVC055 26/22 A2988 RMK AO2 T02620224
KORG 222055Z AUTO 18006KT 10SM SCT019 BKN025 OVC090 27/23 A2989 RMK AO2 60014 T02650227
KORG 222035Z AUTO 17007KT 10SM SCT021 BKN070 BKN080 26/23 A2990 RMK AO2 T02620228
KORG 222015Z AUTO 18012G16KT 10SM SCT012 BKN022 BKN040 26/24 A2990 RMK AO2 T02590237
KORG 221955Z AUTO 16005KT 10SM SCT008 OVC012 25/24 A2991 RMK AO2 P0009 T02470237
KORG 221935Z AUTO 5SM +RA SCT010 BKN014 OVC019 25/24 A2992 RMK AO2 P0002 T02490236 TSNO
KORG 221915Z AUTO 13008KT 10SM SCT008 BKN014 OVC019 24/23 A2993 RMK AO2 T02390233
KORG 221855Z AUTO 13006KT 7SM -RA SCT008 BKN014 OVC023 23/23 A2994 RMK AO2 P0005 T02310226
KORG 221835Z AUTO 12008G15KT 10SM -RA SCT009 BKN015 OVC023 23/22 A2995 RMK AO2 P0003 T02290222 TSNO
KORG 221815Z AUTO 13009G17KT 7SM -RA OVC009 23/22 A2997 RMK AO2 P0002 T02290222
KORG 221755Z AUTO 12008KT 10SM -DZ OVC009 23/22 A2997 RMK AO2 P0001 60034 T02290221 10234 20216
KORG 221735Z AUTO 11008KT 10SM -RA OVC009 23/22 A2998 RMK AO2 LTG DSNT S P0001 T02280220
KORG 221715Z AUTO 13006KT 10SM RA BKN009 OVC015 23/22 A2997 RMK AO2 T02300222 TSNO
KORG 221655Z AUTO 10SM -RA BKN011 BKN029 OVC039 23/22 A2998 RMK AO2 P0002 T02270220
KORG 221635Z AUTO 12012G16KT 7SM -RA SCT025 BKN031 OVC040 23/22 A2998 RMK AO2 P0001 T02250218
KORG 221615Z AUTO 13008G15KT 10SM -RA BKN027 OVC031 23/22 A3000 RMK AO2 T02260217
KORG 221555Z AUTO 13007KT 10SM -RA BKN029 OVC033 23/22 A3000 RMK AO2 T02270218
KORG 221535Z AUTO 12005KT 10SM -RA BKN032 BKN039 OVC046 22/22 A3000 RMK AO2 T02240215
KORG 221515Z AUTO 12009G15KT 10SM SCT040 BKN045 BKN055 22/21 A3000 RMK AO2 T02200207
KORG 221455Z AUTO 10SM -RA SCT008 BKN039 OVC050 22/21 A3000 RMK AO2 P0004 60031 T02180208
KORG 221435Z AUTO 13009G14KT 090V150 7SM -RA SCT008 BKN025 OVC070 23/22 A3001 RMK AO2 P0004 T02250220
KORG 221415Z AUTO 13008KT 5SM -RA SCT023 BKN048 OVC095 22/22 A3002 RMK AO2 P0002 T02230220
KORG 221355Z AUTO 08008KT 1 3/4SM RA SCT016 BKN028 OVC048 22/22 A3001 RMK AO2 LTG DSNT SE AND W P0026 T02240220
KORG 221335Z AUTO 00000KT 5SM -TSRA SCT047 BKN075 OVC095 23/22 A3004 RMK AO2 LTG DSNT SW AND W P0003 T02250220
KORG 221315Z AUTO 06006KT 5SM -RA SCT016 SCT075 OVC095 23/22 A3003 RMK AO2 LTG DSNT SE THRU W P0001 T02270221
KORG 221255Z AUTO 00000KT 10SM RA OVC095 23/22 A3002 RMK AO2 LTG DSNT S T02330221
KORG 221235Z AUTO 11004KT 10SM SCT018 SCT024 OVC095 23/22 A3000 RMK AO2 LTG DSNT S T02320220
KORG 221215Z AUTO 14004KT 10SM SCT015 SCT020 OVC095 23/22 A3002 RMK AO2 LTG DSNT SW T02330220
KORG 221155Z AUTO 00000KT 10SM BKN015 BKN020 OVC030 23/22 A3000 RMK AO2 70142 T02290221 10231 20217
KORG 221135Z AUTO 00000KT 10SM OVC015 23/22 A3000 RMK AO2 T02270221
KORG 221115Z AUTO 03003KT 10SM -RA OVC015 23/22 A3000 RMK AO2 T02260220
KORG 221055Z AUTO 00000KT 10SM OVC017 23/22 A3001 RMK AO2 T02300220
KORG 221035Z AUTO 00000KT 10SM BKN013 OVC019 23/22 A3001 RMK AO2 T02280218
KORG 221015Z AUTO 14004KT 10SM OVC011 23/22 A3000 RMK AO2 T02270216
KORG 220955Z AUTO 13005KT 10SM BKN011 BKN110 23/22 A3000 RMK AO2 T02260215
KORG 220935Z AUTO 14007KT 10SM SCT110 23/22 A3000 RMK AO2 T02290215
KORG 220915Z AUTO 15010G17KT 10SM SCT011 SCT110 23/22 A2999 RMK AO2 LTG DSNT S T02300215
KORG 220855Z AUTO 15010G14KT 10SM SCT011 BKN020 OVC110 23/22 A3000 RMK AO2 T02300221
KORG 220835Z AUTO 15010G14KT 10SM BKN011 BKN019 OVC055 23/22 A3003 RMK AO2 T02300220
KORG 220815Z AUTO 16006KT 10SM BKN011 OVC016 23/22 A3005 RMK AO2 T02300221
KORG 220755Z AUTO 12005KT 10SM BKN011 BKN018 OVC029 23/22 A3005 RMK AO2 LTG DSNT E T02280220
KORG 220735Z AUTO 14005KT 10SM -RA OVC009 23/22 A3006 RMK AO2 LTG DSNT SE T02270220
KORG 220715Z AUTO 12006KT 10SM VCTS OVC009 23/22 A3008 RMK AO2 LTG DSNT SE AND S T02260220
KORG 220655Z AUTO 09004KT 10SM OVC009 23/22 A3007 RMK AO2 LTG DSNT SE AND S T02250217
KORG 220635Z AUTO 10006KT 10SM SCT007 SCT011 OVC018 22/22 A3005 RMK AO2 LTG DSNT SE AND S T02200215
KORG 220615Z AUTO 09009KT 10SM OVC013 22/21 A3004 RMK AO2 LTG DSNT S T02170212
KORG 220555Z AUTO 08007KT 10SM -DZ OVC006 22/21 A3008 RMK AO2 LTG DSNT SE AND S 60001 T02170212 10225 20211 402900211
KORG 220535Z AUTO 09005KT 10SM OVC006 22/21 A3007 RMK AO2 LTG DSNT E THRU S T02160211
KORG 220515Z AUTO 07006KT 10SM OVC006 22/21 A3007 RMK AO2 LTG DSNT SE AND S T02150210
KORG 220455Z AUTO 07006KT 10SM BKN006 21/21 A3007 RMK AO2 T02130210
KORG 220435Z AUTO 05005KT 10SM SCT006 SCT120 21/21 A3006 RMK AO2 LTG DSNT SE T02120210
KORG 220415Z AUTO 02003KT 10SM BKN120 21/21 A3007 RMK AO2 LTG DSNT SE T02110207
KORG 220355Z AUTO 02003KT 10SM SCT048 SCT065 BKN120 21/21 A3008 RMK AO2 LTG DSNT SE AND SW P0001 T02120207
KORG 220335Z AUTO 03005KT 10SM -RA BKN048 BKN065 OVC120 21/21 A3008 RMK AO2 P0001 T02130208
KORG 220315Z AUTO 04004KT 10SM OVC048 21/21 A3009 RMK AO2 LTG DSNT SE AND S T02130207
KORG 220255Z AUTO 00000KT 10SM BKN048 OVC080 21/21 A3009 RMK AO2 T02130206
KORG 220235Z AUTO 01003KT 10SM SCT050 BKN080 21/21 A3008 RMK AO2 LTG DSNT S T02120205
KORG 220215Z AUTO 03003KT 10SM BKN080 21/21 A3006 RMK AO2 LTG DSNT SE T02120205
KORG 220155Z AUTO 06004KT 10SM BKN080 22/21 A3006 RMK AO2 LTG DSNT W T02150205
KORG 220135Z AUTO 05006KT 10SM CLR 21/21 A3005 RMK AO2 LTG DSNT SE T02130206
KORG 220115Z AUTO 06008KT 10SM CLR 21/21 A3002 RMK AO2 LTG DSNT SE AND S T02140206
KORG 220055Z AUTO 06005KT 10SM SCT004 22/21 A3002 RMK AO2 LTG DSNT SE AND S T02160210
KORG 220035Z AUTO 05010G16KT 10SM OVC004 22/22 A3002 RMK AO2 LTG DSNT E AND S T02200215
KORG 220015Z AUTO 05007KT 10SM VCTS SCT004 BKN009 OVC075 22/22 A3001 RMK AO2 LTG DSNT S T02240219
KORG 212355Z AUTO 10SM -RA BKN007 BKN024 OVC075 23/22 A3003 RMK AO2 LTG DSNT E AND S P0002 60099 T02250220 10251 20212
KORG 212335Z AUTO 36006KT 5SM VCTSRA SCT008 SCT070 BKN090 23/22 A3000 RMK AO2 LTG DSNT E THRU S P0001 T02260220
KORG 212315Z AUTO 08006KT 10SM VCTS SCT050 SCT070 BKN090 23/22 A3002 RMK AO2 LTG DSNT E THRU W T02280219
KORG 212255Z AUTO 13004KT 10SM SCT009 SCT047 OVC080 23/22 A3004 RMK AO2 LTG DSNT E THRU W T02270219
KORG 212235Z AUTO 08003KT 10SM VCTS SCT060 BKN070 OVC090 23/22 A3004 RMK AO2 LTG DSNT E THRU W T02260216
KORG 212215Z AUTO 06004KT 10SM VCTS SCT050 BKN075 OVC090 23/22 A3003 RMK AO2 LTG DSNT E THRU SW T02250217
KORG 212155Z AUTO 05006KT 10SM VCTS SCT028 BKN050 OVC070 22/22 A3004 RMK AO2 LTG DSNT E THRU SW P0010 T02210215
KORG 212135Z AUTO 02007KT 7SM TSRA SCT005 BKN034 OVC060 22/21 A3003 RMK AO2 LTG DSNT ALQS P0009 T02150211
KORG 212115Z AUTO 01006KT 7SM RA BKN005 BKN011 OVC050 22/21 A3004 RMK AO2 P0001 T02150210 TSNO
KORG 212055Z AUTO 02009KT 4SM -TSRA BKN005 BKN011 OVC031 21/21 A3005 RMK AO2 LTG DSNT ALQS P0086 60086 T02140210
KORG 212035Z AUTO 02004KT 1 1/4SM +TSRA BKN003 BKN013 OVC020 21/21 A3005 RMK AO2 LTG DSNT NW THRU E T02130209 PNO
KORG 212015Z AUTO 2SM +TSRA SCT003 BKN013 OVC021 22/21 A3004 RMK AO2 LTG DSNT ALQS P0021 T02210214
KORG 211955Z AUTO 01008G15KT 10SM -TSDZ OVC017 23/21 A3003 RMK AO2 LTG DSNT ALQS T02310214
KORG 211935Z AUTO 35005KT 10SM -TSRA SCT009 OVC017 24/22 A3001 RMK AO2 LTG DSNT ALQS T02380224
KORG 211915Z AUTO 10006G14KT 10SM -TSRA SCT009 BKN012 OVC020 24/23 A3000 RMK AO2 LTG DSNT ALQS T02420227
KORG 211855Z AUTO 00000KT 10SM VCTS BKN014 BKN020 OVC025 25/23 A3002 RMK AO2 LTG DSNT W THRU NE T02450231
KORG 211835Z AUTO 10004KT 10SM TS BKN016 OVC021 24/23 A3002 RMK AO2 LTG DSNT ALQS T02430227
KORG 211815Z AUTO 02003KT 10SM TS BKN016 BKN020 OVC027 25/23 A3004 RMK AO2 LTG DSNT ALQS T02500233
KORG 211755Z AUTO 07007KT 10SM VCTS BKN016 OVC026 25/23 A3004 RMK AO2 LTG DSNT ALQS P0032 60042 T02460234 10290 20235
KORG 211735Z AUTO 10SM -RA BKN018 BKN023 OVC043 25/24 A3005 RMK AO2 P0032 T02520241 TSNO
KORG 211715Z AUTO 10008KT 1 1/2SM +TSRA BKN018 BKN031 OVC060 25/24 A3005 RMK AO2 LTG DSNT ALQS P0022 T02530238


Page loaded:  04:59 UTC  |   09:59 PM Pacific  |   10:59 PM Mountain  |   11:59 PM Central  |   12:59 AM Eastern

 

ADVISORIES

FORECASTS

FORECASTS

OBSERVATIONS

USER TOOLS

ABOUT US